Time;durP1;ratioP1;P1;durP2;ratioP2;P2;SDS_P1;SDS_P2;PMS_P1;PMS_P2;Temp;Humidity;BMP_temperature;BMP_pressure;BME280_temperature;BME280_humidity;BME280_pressure;Samples;Min_cycle;Max_cycle;Signal;HPM_P1;HPM_P2
2021/07/22 00:00:24;;;;;;;11.23;6.82;;;;;;;17.30;80.11;102277.88;5070991;28;20024;-55
2021/07/22 00:02:50;;;;;;;10.20;6.43;;;;;;;17.22;80.28;102277.25;5073306;28;20071;-55
2021/07/22 00:05:16;;;;;;;13.18;7.57;;;;;;;17.18;80.23;102280.72;5052487;28;20029;-54
2021/07/22 00:07:46;;;;;;;10.02;6.97;;;;;;;17.10;80.63;102273.88;5071894;28;20024;-55
2021/07/22 00:10:12;;;;;;;10.57;7.13;;;;;;;17.06;80.66;102278.19;5057239;28;20100;-53
2021/07/22 00:12:38;;;;;;;11.02;7.05;;;;;;;17.02;81.03;102277.03;5074327;28;20028;-54
2021/07/22 00:15:06;;;;;;;11.13;7.03;;;;;;;16.98;81.20;102277.78;5069378;28;20036;-55
2021/07/22 00:17:32;;;;;;;12.55;7.63;;;;;;;16.89;81.12;102272.84;5061019;28;20186;-52
2021/07/22 00:20:00;;;;;;;9.70;7.28;;;;;;;16.84;81.35;102274.66;5072962;28;20295;-54
2021/07/22 00:22:28;;;;;;;10.38;7.50;;;;;;;16.79;81.13;102274.59;5074878;28;20028;-54
2021/07/22 00:24:54;;;;;;;9.90;7.05;;;;;;;16.75;80.89;102274.28;5071166;28;20028;-55
2021/07/22 00:27:23;;;;;;;11.45;7.63;;;;;;;16.70;80.97;102273.44;5071704;28;20020;-54
2021/07/22 00:29:48;;;;;;;13.18;8.27;;;;;;;16.63;81.25;102271.66;5076256;28;20032;-53
2021/07/22 00:32:14;;;;;;;10.98;7.32;;;;;;;16.59;81.39;102265.13;5076917;28;20020;-55
2021/07/22 00:34:39;;;;;;;9.82;6.68;;;;;;;16.53;81.47;102273.44;5073237;28;20039;-52
2021/07/22 00:37:05;;;;;;;11.43;7.28;;;;;;;16.50;81.39;102269.31;5076815;28;20647;-55
2021/07/22 00:39:31;;;;;;;9.23;6.97;;;;;;;16.45;81.27;102277.38;5075172;28;20085;-55
2021/07/22 00:41:56;;;;;;;11.52;7.20;;;;;;;16.44;81.17;102270.34;5076549;28;20028;-55
2021/07/22 00:44:22;;;;;;;10.38;7.25;;;;;;;16.43;81.06;102279.53;5073829;28;20028;-52
2021/07/22 00:46:47;;;;;;;10.07;7.40;;;;;;;16.42;81.23;102277.88;5073746;28;20028;-54
2021/07/22 00:49:15;;;;;;;13.82;7.55;;;;;;;16.43;81.36;102276.81;5075118;28;20506;-53
2021/07/22 00:51:41;;;;;;;11.95;7.80;;;;;;;16.46;81.51;102270.91;5074669;28;20474;-53
2021/07/22 00:54:07;;;;;;;12.25;6.90;;;;;;;16.48;81.05;102279.59;5073590;28;20054;-52
2021/07/22 00:56:34;;;;;;;10.60;7.43;;;;;;;16.55;81.17;102282.13;5073304;28;20769;-53
2021/07/22 00:59:03;;;;;;;14.80;7.28;;;;;;;16.56;81.36;102279.16;5076238;28;20777;-52
2021/07/22 01:01:29;;;;;;;10.20;6.65;;;;;;;16.58;81.17;102273.50;5074385;28;20033;-53
2021/07/22 01:03:55;;;;;;;9.82;7.22;;;;;;;16.58;81.51;102271.63;5077666;28;20367;-55
2021/07/22 01:06:20;;;;;;;11.95;7.53;;;;;;;16.59;81.51;102264.31;5079806;28;20081;-55
2021/07/22 01:08:46;;;;;;;14.23;9.05;;;;;;;16.59;81.53;102261.63;5074613;28;20028;-54
2021/07/22 01:11:11;;;;;;;14.75;8.45;;;;;;;16.54;81.85;102251.56;5072217;28;20115;-56
2021/07/22 01:13:37;;;;;;;13.00;8.50;;;;;;;16.53;81.84;102255.31;5077028;28;20032;-54
2021/07/22 01:16:02;;;;;;;17.45;9.30;;;;;;;16.51;82.16;102252.03;5076808;28;20024;-55
2021/07/22 01:18:28;;;;;;;16.42;8.77;;;;;;;16.49;82.27;102243.34;5060358;28;20035;-52
2021/07/22 01:20:53;;;;;;;13.02;7.95;;;;;;;16.48;82.50;102247.13;5075209;28;20024;-54
2021/07/22 01:23:19;;;;;;;12.02;7.97;;;;;;;16.43;82.50;102248.94;5073110;28;20031;-53
2021/07/22 01:25:44;;;;;;;10.90;7.60;;;;;;;16.37;82.80;102253.47;5078923;28;20539;-55
2021/07/22 01:28:10;;;;;;;15.63;8.38;;;;;;;16.30;82.65;102253.66;5070850;28;20489;-52
2021/07/22 01:30:35;;;;;;;14.80;8.60;;;;;;;16.26;83.11;102249.81;5078120;28;20028;-53
2021/07/22 01:33:01;;;;;;;13.55;8.27;;;;;;;16.22;83.08;102250.56;5075067;28;20149;-55
2021/07/22 01:35:26;;;;;;;14.52;7.28;;;;;;;16.14;83.16;102245.56;5074226;28;20578;-53
2021/07/22 01:37:52;;;;;;;11.23;7.47;;;;;;;16.08;83.04;102247.38;5072873;28;20028;-53
2021/07/22 01:40:18;;;;;;;12.85;9.27;;;;;;;16.01;83.37;102252.97;5075065;28;20036;-55
2021/07/22 01:42:44;;;;;;;12.90;8.32;;;;;;;15.97;83.62;102240.19;5073719;28;20474;-55
2021/07/22 01:45:11;;;;;;;11.43;7.82;;;;;;;15.94;83.67;102246.91;5074986;28;20024;-55
2021/07/22 01:47:37;;;;;;;11.90;7.65;;;;;;;15.92;83.47;102243.63;5063838;28;20063;-55
2021/07/22 01:50:03;;;;;;;12.68;7.82;;;;;;;15.91;83.19;102241.19;5073951;28;20044;-52
2021/07/22 01:52:28;;;;;;;11.18;7.85;;;;;;;15.86;82.83;102250.03;5071815;28;20028;-53
2021/07/22 01:54:54;;;;;;;13.98;8.52;;;;;;;15.86;83.10;102247.34;5060626;28;20034;-54
2021/07/22 01:57:19;;;;;;;13.18;7.50;;;;;;;15.84;82.97;102241.38;5073893;28;21189;-56
2021/07/22 01:59:45;;;;;;;10.32;8.15;;;;;;;15.81;83.05;102241.88;5061542;28;20035;-55
2021/07/22 02:02:11;;;;;;;11.20;8.07;;;;;;;15.80;82.96;102248.34;5073446;28;20202;-53
2021/07/22 02:04:38;;;;;;;12.88;8.43;;;;;;;15.74;83.00;102246.59;5069014;28;20051;-52
2021/07/22 02:07:04;;;;;;;12.07;8.60;;;;;;;15.68;83.39;102250.28;5075888;28;20030;-54
2021/07/22 02:09:30;;;;;;;13.65;8.70;;;;;;;15.61;83.63;102247.72;5074841;28;20040;-54
2021/07/22 02:11:58;;;;;;;13.63;8.82;;;;;;;15.56;83.76;102244.09;5060620;28;20077;-53
2021/07/22 02:14:25;;;;;;;10.88;8.02;;;;;;;15.48;83.96;102242.63;5076256;28;20378;-53
2021/07/22 02:16:51;;;;;;;13.20;9.00;;;;;;;15.39;84.28;102250.31;5062141;28;20350;-54
2021/07/22 02:19:17;;;;;;;16.27;9.40;;;;;;;15.35;84.56;102245.66;5077224;28;20029;-54
2021/07/22 02:21:43;;;;;;;13.27;8.27;;;;;;;15.30;84.81;102257.19;5074436;28;20013;-55
2021/07/22 02:24:10;;;;;;;13.77;8.13;;;;;;;15.25;84.89;102254.38;5075710;28;20031;-54
2021/07/22 02:26:36;;;;;;;13.95;9.23;;;;;;;15.21;84.90;102252.41;5081068;28;20043;-52
2021/07/22 02:29:02;;;;;;;12.73;8.13;;;;;;;15.15;85.29;102259.59;5075396;28;20109;-53
2021/07/22 02:31:28;;;;;;;12.05;7.55;;;;;;;15.09;84.87;102253.28;5073076;28;20078;-52
2021/07/22 02:33:53;;;;;;;16.05;8.85;;;;;;;15.05;84.98;102257.50;5072809;28;20024;-54
2021/07/22 02:36:19;;;;;;;16.95;9.38;;;;;;;15.05;84.95;102254.81;5074351;28;20022;-56
2021/07/22 02:38:44;;;;;;;17.95;9.40;;;;;;;15.02;85.10;102259.88;5078850;28;20039;-53
2021/07/22 02:41:10;;;;;;;17.90;8.88;;;;;;;14.96;85.26;102261.66;5072759;28;20048;-52
2021/07/22 02:43:35;;;;;;;21.73;10.13;;;;;;;14.90;85.48;102261.78;5075094;28;20035;-53
2021/07/22 02:46:05;;;;;;;11.80;7.50;;;;;;;14.88;85.70;102250.44;5073999;28;20032;-52
2021/07/22 02:48:31;;;;;;;9.45;6.28;;;;;;;14.84;85.89;102257.38;5078619;28;20034;-53
2021/07/22 02:51:03;;;;;;;11.02;6.45;;;;;;;14.76;86.12;102255.88;5073624;28;20213;-52
2021/07/22 02:53:28;;;;;;;11.02;6.75;;;;;;;14.70;85.79;102260.31;5073182;28;20028;-54
2021/07/22 02:56:01;;;;;;;8.98;6.53;;;;;;;14.59;85.73;102261.19;5074013;28;20020;-52
2021/07/22 02:58:28;;;;;;;10.23;6.35;;;;;;;14.57;85.62;102257.91;5071077;28;20160;-53
2021/07/22 03:00:54;;;;;;;7.30;5.60;;;;;;;14.54;85.67;102258.38;5073756;28;20382;-52
2021/07/22 03:03:19;;;;;;;8.25;5.40;;;;;;;14.49;85.63;102260.97;5076462;28;20020;-52
2021/07/22 03:05:45;;;;;;;10.13;6.50;;;;;;;14.44;85.49;102259.00;5073358;28;20028;-52
2021/07/22 03:08:10;;;;;;;11.20;7.57;;;;;;;14.45;85.63;102267.91;5059501;28;20021;-55
2021/07/22 03:10:36;;;;;;;10.70;6.82;;;;;;;14.42;85.59;102277.25;5071516;28;20538;-52
2021/07/22 03:13:03;;;;;;;12.45;7.72;;;;;;;14.40;85.60;102267.75;5073389;28;20040;-55
2021/07/22 03:15:29;;;;;;;13.20;8.02;;;;;;;14.37;85.36;102269.06;5073207;28;20036;-53
2021/07/22 03:17:55;;;;;;;14.23;8.50;;;;;;;14.38;85.58;102272.56;5057165;28;20080;-53
2021/07/22 03:20:20;;;;;;;10.75;7.50;;;;;;;14.35;85.54;102264.94;5074619;28;20038;-55
2021/07/22 03:22:46;;;;;;;12.13;8.18;;;;;;;14.39;85.65;102274.22;5073475;28;20397;-52
2021/07/22 03:25:12;;;;;;;15.27;8.27;;;;;;;14.44;85.33;102266.25;5072994;28;20027;-53
2021/07/22 03:27:38;;;;;;;15.93;8.77;;;;;;;14.46;85.70;102264.97;5062949;28;20190;-54
2021/07/22 03:30:04;;;;;;;15.05;8.95;;;;;;;14.54;85.34;102269.16;5072500;28;20154;-54
2021/07/22 03:32:29;;;;;;;13.73;8.77;;;;;;;14.57;85.73;102266.00;5075777;28;20043;-54
2021/07/22 03:34:54;;;;;;;13.25;8.05;;;;;;;14.64;85.60;102266.69;5076168;28;20533;-54
2021/07/22 03:37:20;;;;;;;12.40;8.25;;;;;;;14.72;85.52;102270.88;5074787;28;20190;-52
2021/07/22 03:39:45;;;;;;;10.18;7.55;;;;;;;14.76;85.30;102272.88;5073990;28;20055;-52
2021/07/22 03:42:11;;;;;;;11.95;7.95;;;;;;;14.77;85.08;102279.09;5076986;28;20024;-52
2021/07/22 03:44:37;;;;;;;13.07;7.75;;;;;;;14.76;85.34;102267.50;5075397;28;20094;-55
2021/07/22 03:47:03;;;;;;;13.27;8.10;;;;;;;14.85;85.06;102273.31;5073443;28;20577;-55
2021/07/22 03:49:28;;;;;;;13.63;9.07;;;;;;;14.92;84.47;102271.31;5076580;28;20120;-55
2021/07/22 03:51:54;;;;;;;12.25;8.80;;;;;;;14.95;84.54;102276.22;5078103;28;20106;-54
2021/07/22 03:54:20;;;;;;;12.50;8.52;;;;;;;15.03;84.39;102264.22;5080961;28;20016;-52
2021/07/22 03:56:45;;;;;;;12.00;8.30;;;;;;;15.07;84.34;102268.06;5064038;28;20039;-52
2021/07/22 03:59:11;;;;;;;15.55;8.20;;;;;;;15.09;84.29;102263.28;5078277;28;20025;-54
2021/07/22 04:01:36;;;;;;;14.60;9.57;;;;;;;15.13;84.16;102256.31;5081399;28;20032;-55
2021/07/22 04:04:02;;;;;;;14.05;8.95;;;;;;;15.18;84.34;102259.13;5079258;28;20215;-53
2021/07/22 04:06:28;;;;;;;13.48;9.13;;;;;;;15.24;84.15;102266.22;5077544;28;20032;-55
2021/07/22 04:08:53;;;;;;;14.10;9.13;;;;;;;15.30;84.08;102267.16;5079135;28;20054;-52
2021/07/22 04:11:18;;;;;;;15.93;9.18;;;;;;;15.37;83.93;102260.53;5066234;28;20027;-55
2021/07/22 04:13:44;;;;;;;13.50;9.48;;;;;;;15.45;83.76;102263.91;5079830;28;20024;-55
2021/07/22 04:16:09;;;;;;;14.25;9.38;;;;;;;15.50;84.00;102266.69;5077980;28;20016;-52
2021/07/22 04:18:35;;;;;;;15.32;9.55;;;;;;;15.59;83.84;102267.97;5081062;28;20409;-53
2021/07/22 04:21:02;;;;;;;12.75;8.57;;;;;;;15.65;84.14;102275.09;5075562;28;20111;-52
2021/07/22 04:23:28;;;;;;;16.65;9.90;;;;;;;15.73;84.19;102266.56;5076439;28;20493;-52
2021/07/22 04:25:53;;;;;;;15.98;10.30;;;;;;;15.82;84.14;102275.13;5079012;28;20047;-54
2021/07/22 04:28:19;;;;;;;19.33;10.82;;;;;;;15.84;84.49;102278.38;5077275;28;20016;-52
2021/07/22 04:30:44;;;;;;;13.95;8.85;;;;;;;15.91;84.49;102277.13;5065068;28;20015;-55
2021/07/22 04:33:09;;;;;;;19.10;11.85;;;;;;;15.97;84.38;102273.44;5075297;28;20028;-53
2021/07/22 04:35:35;;;;;;;16.65;11.13;;;;;;;16.04;84.13;102273.28;5078820;28;20024;-52
2021/07/22 04:38:01;;;;;;;21.80;12.93;;;;;;;16.11;84.39;102268.53;5075303;28;20042;-53
2021/07/22 04:40:26;;;;;;;18.63;12.65;;;;;;;16.19;83.92;102281.63;5077775;28;20032;-52
2021/07/22 04:42:52;;;;;;;16.80;11.73;;;;;;;16.29;83.82;102275.53;5077815;28;20022;-52
2021/07/22 04:45:17;;;;;;;20.10;12.65;;;;;;;16.35;83.76;102271.03;5077488;28;20024;-52
2021/07/22 04:47:43;;;;;;;18.23;12.02;;;;;;;16.43;83.76;102273.31;5081323;28;20115;-56
2021/07/22 04:50:09;;;;;;;17.77;12.23;;;;;;;16.56;83.28;102276.47;5075831;28;20025;-53
2021/07/22 04:52:35;;;;;;;20.00;13.38;;;;;;;16.66;82.75;102273.06;5083021;28;20474;-53
2021/07/22 04:55:00;;;;;;;23.33;14.50;;;;;;;16.74;82.64;102264.53;5065311;28;20039;-53
2021/07/22 04:57:26;;;;;;;22.35;13.90;;;;;;;16.85;82.22;102265.47;5075370;28;20093;-52
2021/07/22 04:59:51;;;;;;;22.20;14.48;;;;;;;16.94;82.34;102272.06;5075917;28;20024;-52
2021/07/22 05:02:17;;;;;;;20.95;14.30;;;;;;;17.04;82.00;102276.78;5076514;28;20115;-52
2021/07/22 05:04:43;;;;;;;23.80;14.30;;;;;;;17.24;81.86;102276.19;5077456;28;20039;-52
2021/07/22 05:07:08;;;;;;;19.10;12.73;;;;;;;17.37;80.97;102270.34;5076467;28;20033;-54
2021/07/22 05:09:34;;;;;;;20.88;12.57;;;;;;;17.46;80.52;102266.13;5076696;28;20031;-54
2021/07/22 05:11:59;;;;;;;21.67;13.35;;;;;;;17.40;80.63;102276.06;5074175;28;20020;-54
2021/07/22 05:14:25;;;;;;;20.90;13.95;;;;;;;17.65;79.79;102275.50;5076578;28;20070;-52
2021/07/22 05:16:51;;;;;;;21.75;13.23;;;;;;;17.91;78.97;102278.44;5077853;28;20482;-52
2021/07/22 05:19:16;;;;;;;20.83;13.25;;;;;;;18.06;78.38;102279.34;5075519;28;20505;-52
2021/07/22 05:21:42;;;;;;;20.65;12.93;;;;;;;18.13;77.89;102273.69;5081413;28;20114;-55
2021/07/22 05:24:08;;;;;;;18.30;12.23;;;;;;;18.19;77.74;102269.94;5074305;28;20039;-53
2021/07/22 05:26:33;;;;;;;22.85;13.52;;;;;;;18.33;77.28;102273.84;5079727;28;20024;-53
2021/07/22 05:28:59;;;;;;;20.13;11.43;;;;;;;18.47;76.84;102267.91;5076120;28;20115;-54
2021/07/22 05:31:24;;;;;;;17.48;11.65;;;;;;;18.59;76.53;102272.06;5073323;28;20374;-53
2021/07/22 05:33:50;;;;;;;20.40;12.15;;;;;;;18.73;76.16;102272.44;5075679;28;20119;-52
2021/07/22 05:36:15;;;;;;;23.00;12.90;;;;;;;18.82;75.88;102264.56;5075297;28;20024;-52
2021/07/22 05:38:41;;;;;;;17.95;12.23;;;;;;;18.93;75.73;102264.34;5078569;28;20100;-55
2021/07/22 05:41:09;;;;;;;22.00;13.50;;;;;;;19.01;75.96;102265.72;5063796;28;20039;-55
2021/07/22 05:43:36;;;;;;;16.90;11.13;;;;;;;19.08;75.64;102260.03;5076555;28;20509;-53
2021/07/22 05:46:01;;;;;;;20.08;11.70;;;;;;;19.20;75.37;102268.75;5074335;28;20118;-53
2021/07/22 05:48:27;;;;;;;18.50;11.95;;;;;;;19.26;74.85;102260.34;5076331;28;20366;-52
2021/07/22 05:50:53;;;;;;;19.02;12.15;;;;;;;19.08;75.41;102260.03;5075879;28;20055;-52
2021/07/22 05:53:19;;;;;;;25.80;13.32;;;;;;;18.96;75.24;102260.28;5076319;28;20245;-54
2021/07/22 05:55:45;;;;;;;22.45;12.23;;;;;;;18.94;75.77;102265.97;5076439;28;20031;-53
2021/07/22 05:58:11;;;;;;;21.27;12.00;;;;;;;19.23;75.05;102265.50;5077179;28;20120;-53
2021/07/22 06:00:37;;;;;;;21.05;12.40;;;;;;;19.43;73.87;102257.38;5078587;28;20146;-55
2021/07/22 06:03:06;;;;;;;19.02;12.60;;;;;;;19.57;74.19;102260.41;5074467;28;20486;-52
2021/07/22 06:05:33;;;;;;;19.65;11.52;;;;;;;19.81;73.56;102261.47;5074360;28;20050;-55
2021/07/22 06:08:02;;;;;;;20.83;12.15;;;;;;;20.08;72.28;102260.34;5075126;28;20467;-52
2021/07/22 06:10:28;;;;;;;19.35;11.77;;;;;;;20.48;70.80;102254.84;5078154;28;20089;-53
2021/07/22 06:12:54;;;;;;;17.73;10.40;;;;;;;20.32;68.00;102266.03;5076154;28;20443;-54
2021/07/22 06:15:20;;;;;;;14.35;10.88;;;;;;;20.43;68.46;102262.19;5075484;28;20032;-55
2021/07/22 06:17:46;;;;;;;13.90;9.77;;;;;;;20.37;68.16;102260.56;5077463;28;20073;-54
2021/07/22 06:20:11;;;;;;;18.50;10.55;;;;;;;20.17;68.12;102267.69;5078983;28;20028;-55
2021/07/22 06:22:38;;;;;;;16.05;9.88;;;;;;;20.28;68.02;102270.34;5077625;28;20043;-55
2021/07/22 06:25:04;;;;;;;17.33;10.07;;;;;;;20.44;67.87;102263.81;5075456;28;20492;-52
2021/07/22 06:27:30;;;;;;;15.50;9.65;;;;;;;20.49;67.57;102267.34;5074118;28;20028;-52
2021/07/22 06:29:59;;;;;;;14.63;9.40;;;;;;;20.56;67.73;102258.06;5075197;28;20390;-52
2021/07/22 06:32:25;;;;;;;13.75;9.25;;;;;;;20.85;67.09;102261.75;5076327;28;20027;-54
2021/07/22 06:34:50;;;;;;;15.02;7.57;;;;;;;20.52;65.35;102263.25;5074742;28;20409;-53
2021/07/22 06:37:15;;;;;;;12.50;7.57;;;;;;;19.80;65.05;102267.19;5078071;28;20077;-52
2021/07/22 06:39:41;;;;;;;10.30;7.45;;;;;;;19.78;64.67;102261.22;5075208;28;20027;-54
2021/07/22 06:42:06;;;;;;;14.48;8.48;;;;;;;19.91;64.57;102256.00;5073392;28;20044;-54
2021/07/22 06:44:32;;;;;;;11.50;7.43;;;;;;;20.46;64.18;102256.19;5077562;28;20030;-55
2021/07/22 06:46:59;;;;;;;12.55;7.85;;;;;;;20.85;60.70;102260.94;5074773;28;20028;-53
2021/07/22 06:49:25;;;;;;;10.65;7.55;;;;;;;21.32;61.37;102253.00;5075600;28;20541;-53
2021/07/22 06:51:53;;;;;;;14.07;7.32;;;;;;;21.32;60.12;102257.66;5079782;28;20071;-54
2021/07/22 06:54:20;;;;;;;11.07;7.22;;;;;;;21.28;59.37;102257.41;5081627;28;20024;-53
2021/07/22 06:56:46;;;;;;;13.82;6.88;;;;;;;21.17;59.12;102258.53;5061866;28;20485;-55
2021/07/22 06:59:11;;;;;;;14.35;7.70;;;;;;;21.00;59.73;102250.75;5078929;28;20028;-56
2021/07/22 07:01:37;;;;;;;11.30;7.15;;;;;;;21.46;59.92;102261.38;5078032;28;20027;-54
2021/07/22 07:04:03;;;;;;;9.30;5.70;;;;;;;21.34;57.69;102261.72;5070256;28;20020;-52
2021/07/22 07:06:29;;;;;;;11.05;7.13;;;;;;;21.28;57.49;102260.13;5072994;28;20028;-55
2021/07/22 07:08:54;;;;;;;9.38;6.55;;;;;;;21.62;58.23;102251.97;5080640;28;20327;-55
2021/07/22 07:11:20;;;;;;;9.73;6.82;;;;;;;22.19;57.89;102252.25;5071421;28;20031;-53
2021/07/22 07:13:45;;;;;;;12.15;7.72;;;;;;;22.05;56.47;102256.78;5076599;28;20436;-52
2021/07/22 07:16:11;;;;;;;12.30;6.65;;;;;;;21.77;55.85;102255.66;5054968;28;20050;-54
2021/07/22 07:18:36;;;;;;;11.98;6.78;;;;;;;21.90;56.23;102257.72;5079019;28;20024;-54
2021/07/22 07:21:03;;;;;;;9.52;6.22;;;;;;;22.16;56.34;102253.66;5071825;28;20115;-54
2021/07/22 07:23:29;;;;;;;10.73;6.40;;;;;;;22.02;54.93;102253.50;5076777;28;20434;-55
2021/07/22 07:25:54;;;;;;;10.02;6.60;;;;;;;22.19;56.35;102250.34;5070198;28;20066;-53
2021/07/22 07:28:20;;;;;;;12.00;7.13;;;;;;;22.46;55.92;102244.31;5073060;28;20050;-54
2021/07/22 07:30:45;;;;;;;9.07;6.38;;;;;;;22.13;53.40;102242.50;5075210;28;20367;-55
2021/07/22 07:33:11;;;;;;;10.82;6.43;;;;;;;21.63;55.66;102250.06;5074237;28;20974;-55
2021/07/22 07:35:36;;;;;;;9.75;6.30;;;;;;;21.87;55.54;102242.72;5075633;28;20020;-56
2021/07/22 07:38:02;;;;;;;9.75;6.50;;;;;;;21.76;54.54;102254.03;5063190;28;20020;-55
2021/07/22 07:40:27;;;;;;;10.75;6.00;;;;;;;21.56;54.73;102255.03;5068605;28;20032;-54
2021/07/22 07:42:53;;;;;;;9.63;6.30;;;;;;;21.94;55.23;102247.88;5069861;28;20016;-53
2021/07/22 07:45:18;;;;;;;9.10;5.40;;;;;;;21.98;55.02;102249.72;5074786;28;20029;-54
2021/07/22 07:47:45;;;;;;;11.35;6.63;;;;;;;22.19;54.86;102255.81;5073317;28;20047;-53
2021/07/22 07:50:11;;;;;;;9.70;6.35;;;;;;;22.68;53.71;102253.88;5069839;28;20486;-54
2021/07/22 07:52:37;;;;;;;10.48;6.10;;;;;;;22.68;53.53;102253.88;5076833;28;20161;-54
2021/07/22 07:55:07;;;;;;;9.18;5.57;;;;;;;21.92;52.41;102258.25;5068942;28;20099;-54
2021/07/22 07:57:33;;;;;;;11.15;6.05;;;;;;;21.90;53.26;102247.63;5070348;28;20393;-53
2021/07/22 07:59:58;;;;;;;9.77;5.38;;;;;;;22.31;52.72;102255.41;5069524;28;20028;-53
2021/07/22 08:02:24;;;;;;;8.75;5.32;;;;;;;22.36;52.65;102247.16;5073280;28;20031;-56
2021/07/22 08:04:50;;;;;;;9.30;4.90;;;;;;;22.31;52.90;102242.56;5076262;28;20417;-56
2021/07/22 08:07:15;;;;;;;6.88;4.80;;;;;;;22.17;51.76;102249.81;5068857;28;21561;-56
2021/07/22 08:09:41;;;;;;;7.75;5.07;;;;;;;22.14;52.73;102255.06;5071658;28;20103;-54
2021/07/22 08:12:06;;;;;;;9.90;5.97;;;;;;;22.17;52.58;102246.28;5071827;28;20021;-56
2021/07/22 08:14:41;;;;;;;9.27;6.10;;;;;;;22.09;52.04;102246.94;5077541;28;20036;-54
2021/07/22 08:17:06;;;;;;;;;;;;;;;22.00;52.92;102243.97;5075659;28;20456;-56
2021/07/22 08:19:33;;;;;;;10.20;6.38;;;;;;;22.49;52.56;102240.19;5067073;28;19920;-55
2021/07/22 08:21:59;;;;;;;8.80;6.45;;;;;;;22.78;51.98;102250.97;5072190;28;20027;-56
2021/07/22 08:24:24;;;;;;;9.30;5.68;;;;;;;23.04;51.16;102237.81;5072402;28;20047;-56
2021/07/22 08:26:50;;;;;;;7.95;5.25;;;;;;;23.14;50.63;102235.72;5068093;28;20568;-56
2021/07/22 08:29:15;;;;;;;9.25;5.95;;;;;;;22.92;50.21;102241.81;5064933;28;20032;-56
2021/07/22 08:31:41;;;;;;;9.35;5.65;;;;;;;22.51;50.64;102238.78;5074192;28;20059;-56
2021/07/22 08:34:06;;;;;;;9.43;6.03;;;;;;;21.93;52.66;102243.50;5069467;28;20379;-56
2021/07/22 08:36:32;;;;;;;8.13;5.95;;;;;;;22.07;53.17;102244.47;5072614;28;20024;-56
2021/07/22 08:38:58;;;;;;;8.45;5.22;;;;;;;21.69;53.37;102244.25;5077637;28;20821;-54
2021/07/22 08:41:23;;;;;;;7.93;5.82;;;;;;;;;;5072848;28;20029;-56
2021/07/22 08:43:51;;;;;;;9.57;5.95;;;;;;;22.58;52.91;102235.69;5076537;28;20078;-56
2021/07/22 08:46:18;;;;;;;7.53;5.10;;;;;;;23.39;51.51;102234.53;5077459;28;20105;-56
2021/07/22 08:48:44;;;;;;;7.55;5.75;;;;;;;23.50;49.88;102225.03;5076533;28;20034;-56
2021/07/22 08:51:09;;;;;;;9.30;5.68;;;;;;;22.77;50.90;102236.50;5059674;28;20441;-56
2021/07/22 08:53:35;;;;;;;9.43;6.35;;;;;;;23.14;50.73;102232.19;5075119;28;20024;-55
2021/07/22 08:56:05;;;;;;;7.75;5.65;;;;;;;22.81;51.26;102234.84;5074298;28;20067;-55
2021/07/22 08:58:31;;;;;;;7.57;5.63;;;;;;;22.96;51.31;102219.34;5057174;28;20036;-54
2021/07/22 09:01:00;;;;;;;9.77;5.35;;;;;;;23.00;51.27;102232.13;5071799;28;20036;-55
2021/07/22 09:03:26;;;;;;;10.55;6.20;;;;;;;22.33;52.40;102234.09;5075428;28;20073;-52
2021/07/22 09:05:51;;;;;;;9.77;6.15;;;;;;;22.73;51.53;102238.22;5074014;28;20020;-56
2021/07/22 09:08:17;;;;;;;7.47;5.43;;;;;;;23.17;50.94;102231.63;5071760;28;20023;-55
2021/07/22 09:10:42;;;;;;;10.23;5.93;;;;;;;23.48;50.39;102227.25;5069253;28;20116;-53
2021/07/22 09:13:24;;;;;;;10.35;6.28;;;;;;;23.32;50.18;102236.81;5072580;28;20027;-56
2021/07/22 09:15:53;;;;;;;9.20;5.75;;;;;;;22.88;51.92;102237.22;5073519;28;20123;-53
2021/07/22 09:18:24;;;;;;;8.00;6.20;;;;;;;23.05;49.91;102228.50;5056593;28;20277;-53
2021/07/22 09:20:51;;;;;;;12.25;5.95;;;;;;;23.47;50.14;102222.09;5071614;28;20424;-53
2021/07/22 09:23:27;;;;;;;9.77;6.28;;;;;;;24.02;48.66;102231.25;5073261;28;20103;-54
2021/07/22 09:25:54;;;;;;;9.70;6.50;;;;;;;23.45;49.00;102229.78;5077442;28;20115;-53
2021/07/22 09:28:21;;;;;;;13.48;6.40;;;;;;;23.65;49.18;102221.25;5075505;28;20024;-53
2021/07/22 09:31:09;;;;;;;10.13;5.60;;;;;;;23.63;49.76;102217.19;5069114;28;20024;-56
2021/07/22 09:33:44;;;;;;;10.43;6.35;;;;;;;23.81;48.62;102219.88;5073176;28;20366;-55
2021/07/22 09:36:18;;;;;;;8.75;6.05;;;;;;;23.41;49.95;102220.56;5070779;28;20028;-54
2021/07/22 09:38:44;;;;;;;9.18;6.47;;;;;;;23.86;50.11;102218.13;5074561;28;20535;-55
2021/07/22 09:41:24;;;;;;;8.57;5.65;;;;;;;24.25;49.77;102215.75;5071422;28;20020;-55
2021/07/22 09:43:50;;;;;;;8.25;6.25;;;;;;;23.46;48.93;102213.06;5070923;28;20028;-54
2021/07/22 09:46:16;;;;;;;8.68;6.43;;;;;;;22.87;50.29;102216.47;5074492;28;20551;-56
2021/07/22 09:49:12;;;;;;;8.90;5.68;;;;;;;22.64;50.42;102211.84;5075123;28;20025;-56
2021/07/22 09:51:38;;;;;;;9.45;6.45;;;;;;;23.12;50.03;102218.81;5069576;28;20028;-55
2021/07/22 09:54:10;;;;;;;9.38;5.90;;;;;;;23.72;49.07;102215.41;5074392;28;20036;-55
2021/07/22 09:56:41;;;;;;;12.00;5.65;;;;;;;23.52;48.91;102216.53;5072773;28;20193;-56
2021/07/22 09:59:08;;;;;;;8.00;5.72;;;;;;;23.44;48.34;102220.75;5071235;28;20030;-54
2021/07/22 10:01:47;;;;;;;8.98;5.95;;;;;;;23.40;48.39;102213.47;5074940;28;20073;-54
2021/07/22 10:04:14;;;;;;;8.32;6.15;;;;;;;23.69;48.63;102207.78;5075804;28;20031;-55
2021/07/22 10:06:45;;;;;;;7.90;6.30;;;;;;;22.72;50.25;102211.19;5075358;28;20085;-55
2021/07/22 10:09:20;;;;;;;12.80;6.93;;;;;;;22.75;51.38;102207.88;5077957;28;20466;-56
2021/07/22 10:11:47;;;;;;;11.20;6.68;;;;;;;23.02;51.08;102208.06;5076004;28;20040;-55
2021/07/22 10:14:16;;;;;;;8.77;6.05;;;;;;;23.15;50.08;102201.81;5079098;28;20033;-55
2021/07/22 10:16:46;;;;;;;11.25;7.53;;;;;;;23.97;49.32;102212.19;5077005;28;20020;-53
2021/07/22 10:19:12;;;;;;;11.80;6.60;;;;;;;24.59;47.78;102198.06;5076407;28;20256;-53
2021/07/22 10:21:37;;;;;;;8.88;6.28;;;;;;;24.37;47.88;102194.16;5059202;28;20524;-54
2021/07/22 10:24:06;;;;;;;8.52;6.38;;;;;;;24.70;45.88;102203.03;5077310;28;20028;-54
2021/07/22 10:26:39;;;;;;;11.15;6.90;;;;;;;25.49;44.79;102187.97;5084844;22;20036;-59
2021/07/22 10:29:05;;;;;;;9.05;6.07;;;;;;;25.79;43.21;102192.69;5059980;28;20017;-60
2021/07/22 10:31:34;;;;;;;11.05;6.53;;;;;;;25.42;43.91;102191.19;5057870;28;20497;-59
2021/07/22 10:34:00;;;;;;;8.98;6.68;;;;;;;24.86;46.09;102178.00;5058820;28;20028;-60
2021/07/22 10:36:27;;;;;;;8.02;6.13;;;;;;;24.09;47.65;102192.53;5054623;28;20033;-60
2021/07/22 10:38:53;;;;;;;7.82;6.05;;;;;;;23.19;49.30;102186.47;5055453;28;20448;-60
2021/07/22 10:41:36;;;;;;;8.82;6.25;;;;;;;23.35;49.37;102191.69;5057163;28;20056;-58
2021/07/22 10:44:15;;;;;;;7.75;6.03;;;;;;;23.00;50.10;102188.41;5057174;28;20016;-58
2021/07/22 10:46:58;;;;;;;10.38;6.20;;;;;;;23.21;50.15;102183.41;5054673;28;20029;-58
2021/07/22 10:49:43;;;;;;;9.18;6.60;;;;;;;23.27;49.32;102189.59;5057691;28;20024;-58
2021/07/22 10:52:13;;;;;;;9.82;6.65;;;;;;;23.51;49.15;102182.06;5055330;28;20028;-57
2021/07/22 10:54:39;;;;;;;12.43;7.35;;;;;;;23.72;48.33;102177.09;5058533;28;20036;-59
2021/07/22 10:57:05;;;;;;;8.35;6.30;;;;;;;23.99;48.12;102181.75;5055239;28;20036;-59
2021/07/22 10:59:55;;;;;;;18.77;13.80;;;;;;;24.42;47.37;102179.56;5062385;28;20054;-60
2021/07/22 11:02:42;;;;;;;9.45;6.18;;;;;;;24.76;46.83;102167.25;5056959;28;20051;-60
2021/07/22 11:05:26;;;;;;;9.60;6.63;;;;;;;24.91;46.77;102170.47;5051011;28;20071;-60
2021/07/22 11:08:20;;;;;;;8.43;6.18;;;;;;;25.53;46.07;102167.84;5047552;28;20120;-60
2021/07/22 11:10:54;;;;;;;8.40;5.55;;;;;;;25.59;44.82;102163.03;5031967;28;20036;-60
2021/07/22 11:13:35;;;;;;;8.38;6.47;;;;;;;25.11;45.42;102165.63;5052023;28;20075;-60
2021/07/22 11:16:02;;;;;;;11.27;5.82;;;;;;;25.05;45.22;102164.16;5055178;28;20061;-60
2021/07/22 11:18:45;;;;;;;11.00;6.60;;;;;;;23.90;48.13;102164.44;5051314;28;20127;-61